createdAt,value
2024-01-25T00:01:48.744Z,88.96
2024-01-25T00:04:15.636Z,88.21
2024-01-25T00:06:42.437Z,89.02
2024-01-25T00:09:09.516Z,88.42
2024-01-25T00:11:36.751Z,88.70
2024-01-25T00:14:04.208Z,89.27
2024-01-25T00:16:30.958Z,89.20
2024-01-25T00:18:57.786Z,88.44
2024-01-25T00:21:24.567Z,89.02
2024-01-25T00:23:51.206Z,89.39
2024-01-25T00:26:17.865Z,88.87
2024-01-25T00:28:44.609Z,89.01
2024-01-25T00:31:11.295Z,89.57
2024-01-25T00:33:38.422Z,89.29
2024-01-25T00:36:05.574Z,88.87
2024-01-25T00:38:32.524Z,89.32
2024-01-25T00:40:59.334Z,89.41
2024-01-25T00:43:26.202Z,88.60
2024-01-25T00:45:55.846Z,89.56
2024-01-25T00:48:22.791Z,89.42
2024-01-25T00:50:49.550Z,88.99
2024-01-25T00:53:16.390Z,88.52
2024-01-25T00:55:43.098Z,88.71
2024-01-25T00:58:09.996Z,88.97
2024-01-25T01:00:36.978Z,88.62
2024-01-25T01:03:05.315Z,88.80
2024-01-25T01:05:32.408Z,88.72
2024-01-25T01:07:59.461Z,89.00
2024-01-25T01:10:26.378Z,89.28
2024-01-25T01:12:54.645Z,89.27
2024-01-25T01:15:21.334Z,88.38
2024-01-25T01:17:48.080Z,88.69
2024-01-25T01:20:14.977Z,88.97
2024-01-25T01:22:41.728Z,89.00
2024-01-25T01:25:09.017Z,88.97
2024-01-25T01:27:35.771Z,88.97
2024-01-25T01:30:02.595Z,89.35
2024-01-25T01:32:29.474Z,89.10
2024-01-25T01:34:56.613Z,89.22
2024-01-25T01:37:23.452Z,88.79
2024-01-25T01:39:50.187Z,89.21
2024-01-25T01:42:18.389Z,89.19
2024-01-25T01:44:45.333Z,89.05
2024-01-25T01:47:12.351Z,88.90
2024-01-25T01:49:39.626Z,88.08
2024-01-25T01:52:07.767Z,88.04
2024-01-25T01:54:34.628Z,89.00
2024-01-25T01:57:01.533Z,88.89
2024-01-25T01:59:29.762Z,89.07
2024-01-25T02:01:56.462Z,89.46
2024-01-25T02:04:23.278Z,88.87
2024-01-25T02:06:50.179Z,88.69
2024-01-25T02:09:17.019Z,88.07
2024-01-25T02:11:43.684Z,88.56
2024-01-25T02:14:12.867Z,88.22
2024-01-25T02:16:39.878Z,89.03
2024-01-25T02:19:06.699Z,87.53
2024-01-25T02:21:33.414Z,88.16
2024-01-25T02:24:00.786Z,88.30
2024-01-25T02:26:27.598Z,88.56
2024-01-25T02:28:55.571Z,88.07
2024-01-25T02:31:22.555Z,87.83
2024-01-25T02:33:49.457Z,87.32
2024-01-25T02:36:16.919Z,87.94
2024-01-25T02:38:43.542Z,88.08
2024-01-25T02:41:10.183Z,88.30
2024-01-25T02:43:36.858Z,87.91
2024-01-25T02:46:03.551Z,87.27
2024-01-25T02:48:30.717Z,86.41
2024-01-25T02:50:57.424Z,86.60
2024-01-25T02:53:24.041Z,86.62
2024-01-25T02:55:50.716Z,86.56
2024-01-25T02:58:18.141Z,85.99
2024-01-25T03:00:45.052Z,85.73
2024-01-25T03:03:12.076Z,85.78
2024-01-25T03:05:38.857Z,83.95
2024-01-25T03:08:05.792Z,87.26
2024-01-25T03:10:32.634Z,88.10
2024-01-25T03:12:59.304Z,87.33
2024-01-25T03:15:26.003Z,85.10
2024-01-25T03:17:52.752Z,85.22
2024-01-25T03:20:19.547Z,87.10
2024-01-25T03:22:46.420Z,86.46
2024-01-25T03:25:13.043Z,86.69
2024-01-25T03:27:39.715Z,86.69
2024-01-25T03:30:07.411Z,84.97
2024-01-25T03:32:34.867Z,86.29
2024-01-25T03:35:01.904Z,84.29
2024-01-25T03:37:28.841Z,86.61
2024-01-25T03:39:55.564Z,85.45
2024-01-25T03:42:22.367Z,85.69
2024-01-25T03:44:49.298Z,85.22
2024-01-25T03:47:15.970Z,85.73
2024-01-25T03:49:42.758Z,86.42
2024-01-25T03:52:09.583Z,84.75
2024-01-25T03:54:36.293Z,84.25
2024-01-25T03:57:03.169Z,86.18
2024-01-25T03:59:29.942Z,84.94
2024-01-25T04:01:56.665Z,86.31
2024-01-25T04:04:23.679Z,85.81
2024-01-25T04:06:51.110Z,85.84
2024-01-25T04:09:17.915Z,85.91
2024-01-25T04:11:44.576Z,84.84
2024-01-25T04:14:11.158Z,86.46
2024-01-25T04:16:38.021Z,86.93
2024-01-25T04:19:04.753Z,86.13
2024-01-25T04:21:31.717Z,85.88
2024-01-25T04:23:58.427Z,85.80
2024-01-25T04:26:25.097Z,83.82
2024-01-25T04:28:51.801Z,85.12
2024-01-25T04:31:18.664Z,83.65
2024-01-25T04:33:48.732Z,85.68
2024-01-25T04:36:16.177Z,86.00
2024-01-25T04:38:42.763Z,84.50
2024-01-25T04:41:09.439Z,85.91
2024-01-25T04:43:37.742Z,86.00
2024-01-25T04:46:04.885Z,86.54
2024-01-25T04:48:32.482Z,86.86
2024-01-25T04:51:00.034Z,84.33
2024-01-25T04:53:26.687Z,84.98
2024-01-25T04:55:54.546Z,85.07
2024-01-25T04:58:21.181Z,84.29
2024-01-25T05:00:48.440Z,83.38
2024-01-25T05:03:15.347Z,85.33
2024-01-25T05:05:42.025Z,86.68
2024-01-25T05:08:09.000Z,87.11
2024-01-25T05:10:35.776Z,87.11
2024-01-25T05:13:02.465Z,85.45
2024-01-25T05:15:29.147Z,83.58
2024-01-25T05:17:55.911Z,85.53
2024-01-25T05:20:23.371Z,84.96
2024-01-25T05:22:50.298Z,83.90
2024-01-25T05:25:17.169Z,84.27
2024-01-25T05:27:43.914Z,84.02
2024-01-25T05:30:11.325Z,85.15
2024-01-25T05:32:38.156Z,86.02
2024-01-25T05:35:06.051Z,86.61
2024-01-25T05:37:33.561Z,86.28
2024-01-25T05:40:00.335Z,84.94
2024-01-25T05:42:27.012Z,83.10
2024-01-25T05:44:53.703Z,84.25
2024-01-25T05:47:20.303Z,85.03
2024-01-25T05:49:47.099Z,81.92
2024-01-25T05:52:14.476Z,83.48
2024-01-25T05:54:41.222Z,83.14
2024-01-25T05:57:07.884Z,85.31
2024-01-25T05:59:34.505Z,84.41
2024-01-25T06:02:01.356Z,84.66
2024-01-25T06:04:28.303Z,84.47
2024-01-25T06:06:55.454Z,83.85
2024-01-25T06:09:22.214Z,84.41
2024-01-25T06:11:48.834Z,83.86
2024-01-25T06:14:15.451Z,83.67
2024-01-25T06:16:42.193Z,83.31
2024-01-25T06:19:09.264Z,84.08
2024-01-25T06:21:36.840Z,82.87
2024-01-25T06:24:03.619Z,82.83
2024-01-25T06:26:30.350Z,85.31
2024-01-25T06:28:57.988Z,85.18
2024-01-25T06:31:27.911Z,83.10
2024-01-25T06:33:54.905Z,85.65
2024-01-25T06:36:21.700Z,82.45
2024-01-25T06:38:48.438Z,84.13
2024-01-25T06:41:16.136Z,84.22
2024-01-25T06:43:42.952Z,85.18
2024-01-25T06:46:09.645Z,84.12
2024-01-25T06:48:37.253Z,84.18
2024-01-25T06:51:04.020Z,85.67
2024-01-25T06:53:30.885Z,84.40
2024-01-25T06:55:57.502Z,85.43
2024-01-25T06:58:24.909Z,82.99
2024-01-25T07:00:52.117Z,84.00
2024-01-25T07:03:19.936Z,83.76
2024-01-25T07:05:47.124Z,85.01
2024-01-25T07:08:14.674Z,85.32
2024-01-25T07:10:41.602Z,84.71
2024-01-25T07:13:08.428Z,83.44
2024-01-25T07:15:35.400Z,84.50
2024-01-25T07:18:02.344Z,82.89
2024-01-25T07:20:29.298Z,83.04
2024-01-25T07:22:56.321Z,84.42
2024-01-25T07:25:23.081Z,85.38
2024-01-25T07:27:50.747Z,83.79
2024-01-25T07:30:17.963Z,84.12
2024-01-25T07:32:47.055Z,83.70
2024-01-25T07:35:14.309Z,83.52
2024-01-25T07:37:43.799Z,84.85
2024-01-25T07:40:10.783Z,83.58
2024-01-25T07:42:37.545Z,83.41
2024-01-25T07:45:04.489Z,84.20
2024-01-25T07:47:31.214Z,84.49
2024-01-25T07:49:58.504Z,83.29
2024-01-25T07:52:27.498Z,83.59
2024-01-25T07:54:54.860Z,83.91
2024-01-25T07:57:21.652Z,84.22
2024-01-25T07:59:48.251Z,83.58
2024-01-25T08:02:18.543Z,82.34
2024-01-25T08:04:47.065Z,83.67
2024-01-25T08:07:13.885Z,82.40
2024-01-25T08:09:40.675Z,85.18
2024-01-25T08:12:07.478Z,83.03
2024-01-25T08:14:34.155Z,83.43
2024-01-25T08:17:01.400Z,84.34
2024-01-25T08:19:28.387Z,83.45
2024-01-25T08:21:55.415Z,85.17
2024-01-25T08:24:22.146Z,85.75
2024-01-25T08:26:48.775Z,85.38
2024-01-25T08:29:15.428Z,86.18
2024-01-25T08:31:42.241Z,85.81
2024-01-25T08:34:09.167Z,86.50
2024-01-25T08:36:35.980Z,86.43
2024-01-25T08:39:03.033Z,86.81
2024-01-25T08:41:33.038Z,86.46
2024-01-25T08:44:19.058Z,85.65
2024-01-25T08:47:04.640Z,85.97
2024-01-25T08:49:31.408Z,85.74
2024-01-25T08:51:58.203Z,84.08
2024-01-25T08:54:24.951Z,84.56
2024-01-25T08:56:51.630Z,86.19
2024-01-25T08:59:18.874Z,85.31
2024-01-25T09:01:45.634Z,84.02
2024-01-25T09:04:12.537Z,83.24
2024-01-25T09:06:39.285Z,83.61
2024-01-25T09:09:06.561Z,83.99
2024-01-25T09:11:33.163Z,83.79
2024-01-25T09:13:59.837Z,83.07
2024-01-25T09:16:26.731Z,84.83
2024-01-25T09:18:53.793Z,83.87
2024-01-25T09:21:20.541Z,84.41
2024-01-25T09:23:47.185Z,85.13
2024-01-25T09:26:14.073Z,84.46
2024-01-25T09:28:40.934Z,84.81
2024-01-25T09:31:07.882Z,84.89
2024-01-25T09:33:35.219Z,85.55
2024-01-25T09:36:03.235Z,86.14
2024-01-25T09:38:30.420Z,84.80
2024-01-25T09:40:57.297Z,85.01
2024-01-25T09:43:24.143Z,85.84
2024-01-25T09:45:53.903Z,85.29
2024-01-25T09:48:21.402Z,84.48
2024-01-25T09:50:48.830Z,85.89
2024-01-25T09:53:23.736Z,86.16
2024-01-25T09:56:04.785Z,85.64
2024-01-25T09:58:38.987Z,85.12
2024-01-25T10:01:08.750Z,85.59
2024-01-25T10:03:36.302Z,84.32
2024-01-25T10:06:06.190Z,85.50
2024-01-25T10:08:33.329Z,85.03
2024-01-25T10:11:00.166Z,84.54
2024-01-25T10:13:27.928Z,84.96
2024-01-25T10:15:55.483Z,84.61
2024-01-25T10:18:29.904Z,84.94
2024-01-25T10:20:59.076Z,85.42
2024-01-25T10:23:27.130Z,85.32
2024-01-25T10:25:54.558Z,85.31
2024-01-25T10:28:21.521Z,86.11
2024-01-25T10:30:48.661Z,85.62
2024-01-25T10:33:16.456Z,86.04
2024-01-25T10:35:46.562Z,85.63
2024-01-25T10:38:13.553Z,85.87
2024-01-25T10:40:42.825Z,86.00
2024-01-25T10:43:11.165Z,86.58
2024-01-25T10:45:38.183Z,86.25
2024-01-25T10:48:05.786Z,86.04
2024-01-25T10:50:32.661Z,85.95
2024-01-25T10:53:00.207Z,85.34
2024-01-25T10:55:27.511Z,86.25
2024-01-25T10:57:54.515Z,86.82
2024-01-25T11:00:22.091Z,87.02
2024-01-25T11:02:50.736Z,87.56
2024-01-25T11:05:19.399Z,86.99
2024-01-25T11:07:50.040Z,86.49
2024-01-25T11:10:23.436Z,87.09
2024-01-25T11:12:56.915Z,87.08
2024-01-25T11:15:27.351Z,86.98
2024-01-25T11:17:55.240Z,87.76
2024-01-25T11:20:31.011Z,87.09
2024-01-25T11:22:59.078Z,86.74
2024-01-25T11:25:27.854Z,87.63
2024-01-25T11:27:55.195Z,88.44
2024-01-25T11:30:21.926Z,89.78
2024-01-25T11:32:49.100Z,88.82
2024-01-25T11:35:18.216Z,89.00
2024-01-25T11:37:48.479Z,90.08
2024-01-25T11:40:16.284Z,90.40
2024-01-25T11:42:44.446Z,89.94
2024-01-25T11:45:12.111Z,90.04
2024-01-25T11:47:39.816Z,89.37
2024-01-25T11:50:08.203Z,87.79
2024-01-25T11:52:35.507Z,87.26
2024-01-25T11:55:06.260Z,87.75
2024-01-25T11:57:42.217Z,87.03
2024-01-25T12:00:14.603Z,87.37
2024-01-25T12:02:42.000Z,85.46
2024-01-25T12:05:11.165Z,85.56
2024-01-25T12:07:40.069Z,86.95
2024-01-25T12:10:07.935Z,86.56
2024-01-25T12:12:37.480Z,87.29
2024-01-25T12:15:05.890Z,87.08
2024-01-25T12:17:33.575Z,87.43
2024-01-25T12:20:00.963Z,88.07
2024-01-25T12:22:28.491Z,87.82
2024-01-25T12:25:00.315Z,87.99
2024-01-25T12:27:28.373Z,87.85
2024-01-25T12:29:55.031Z,87.49
2024-01-25T12:32:22.051Z,86.81
2024-01-25T12:34:56.093Z,87.83
2024-01-25T12:37:23.075Z,86.61
2024-01-25T12:39:51.198Z,86.21
2024-01-25T12:42:19.021Z,86.29
2024-01-25T12:44:46.816Z,86.39
2024-01-25T12:47:14.395Z,86.07
2024-01-25T12:49:44.781Z,85.45
2024-01-25T12:52:16.079Z,85.40
2024-01-25T12:54:43.020Z,85.40
2024-01-25T12:57:09.715Z,83.92
2024-01-25T12:59:37.283Z,84.04
2024-01-25T13:02:04.722Z,83.46
2024-01-25T13:04:31.554Z,83.56
2024-01-25T13:06:59.194Z,83.35
2024-01-25T13:09:26.303Z,83.79
2024-01-25T13:11:55.629Z,84.01
2024-01-25T13:14:22.281Z,83.27
2024-01-25T13:16:49.001Z,83.73
2024-01-25T13:19:15.797Z,84.22
2024-01-25T13:21:42.581Z,82.86
2024-01-25T13:24:09.290Z,82.85
2024-01-25T13:26:37.036Z,83.22
2024-01-25T13:29:03.952Z,83.47
2024-01-25T13:31:30.665Z,82.35
2024-01-25T13:33:57.486Z,83.07
2024-01-25T13:36:24.235Z,83.88
2024-01-25T13:38:50.894Z,83.53
2024-01-25T13:41:17.756Z,84.15
2024-01-25T13:43:44.497Z,83.74
2024-01-25T13:46:11.210Z,83.05
2024-01-25T13:48:37.997Z,83.80
2024-01-25T13:51:04.822Z,83.36
2024-01-25T13:53:31.497Z,83.71
2024-01-25T13:55:58.208Z,84.35
2024-01-25T13:58:24.897Z,84.00
2024-01-25T14:00:51.624Z,84.31
2024-01-25T14:03:18.694Z,85.71
2024-01-25T14:05:45.519Z,84.68
2024-01-25T14:08:12.426Z,86.43
2024-01-25T14:10:39.257Z,85.63
2024-01-25T14:13:07.198Z,86.20
2024-01-25T14:15:34.063Z,86.35
2024-01-25T14:18:01.916Z,86.46
2024-01-25T14:20:28.795Z,86.40
2024-01-25T14:22:55.610Z,86.71
2024-01-25T14:25:22.357Z,86.78
2024-01-25T14:27:50.185Z,86.90
2024-01-25T14:30:18.000Z,86.19
2024-01-25T14:32:45.692Z,84.54
2024-01-25T14:35:13.011Z,85.67
2024-01-25T14:37:39.783Z,85.70
2024-01-25T14:40:19.401Z,85.20
2024-01-25T14:42:54.308Z,84.23
2024-01-25T14:45:21.734Z,84.13
2024-01-25T14:47:48.361Z,84.16
2024-01-25T14:50:15.150Z,84.08
2024-01-25T14:52:41.864Z,84.03
2024-01-25T14:55:08.911Z,85.33
2024-01-25T14:57:38.101Z,83.15
2024-01-25T15:00:06.944Z,84.20
2024-01-25T15:02:33.970Z,83.72
2024-01-25T15:05:00.950Z,84.86
2024-01-25T15:07:27.609Z,86.30
2024-01-25T15:09:54.876Z,84.37
2024-01-25T15:12:22.530Z,83.54
2024-01-25T15:14:49.218Z,83.99
2024-01-25T15:17:16.039Z,85.43
2024-01-25T15:19:42.903Z,85.87
2024-01-25T15:22:09.940Z,86.45
2024-01-25T15:24:36.679Z,85.80
2024-01-25T15:27:03.532Z,83.86
2024-01-25T15:29:31.813Z,85.22
2024-01-25T15:31:58.531Z,84.60
2024-01-25T15:34:25.398Z,84.53
2024-01-25T15:36:52.167Z,85.33
2024-01-25T15:39:19.677Z,85.48
2024-01-25T15:41:50.383Z,83.48
2024-01-25T15:44:17.341Z,83.26
2024-01-25T15:46:44.307Z,85.67
2024-01-25T15:49:10.968Z,85.14
2024-01-25T15:51:37.652Z,85.18
2024-01-25T15:54:04.426Z,86.59
2024-01-25T15:56:32.015Z,86.39
2024-01-25T15:58:58.808Z,86.75
2024-01-25T16:01:25.698Z,86.62
2024-01-25T16:03:52.451Z,85.56
2024-01-25T16:06:19.336Z,85.75
2024-01-25T16:08:46.059Z,85.56
2024-01-25T16:11:12.766Z,85.50
2024-01-25T16:13:39.435Z,86.10
2024-01-25T16:16:06.511Z,85.82
2024-01-25T16:18:34.215Z,85.01
2024-01-25T16:21:01.058Z,85.49
2024-01-25T16:23:27.639Z,83.87
2024-01-25T16:25:54.330Z,85.91
2024-01-25T16:28:20.937Z,85.52
2024-01-25T16:30:47.714Z,84.80
2024-01-25T16:33:14.522Z,84.03
2024-01-25T16:35:41.303Z,84.57
2024-01-25T16:38:07.944Z,84.25
2024-01-25T16:40:34.631Z,84.21
2024-01-25T16:43:01.354Z,84.56
2024-01-25T16:45:28.137Z,84.68
2024-01-25T16:47:54.891Z,84.97
2024-01-25T16:50:21.706Z,85.78
2024-01-25T16:52:50.422Z,84.55
2024-01-25T16:55:17.131Z,85.41
2024-01-25T16:57:43.745Z,86.25
2024-01-25T17:00:10.672Z,83.22
2024-01-25T17:02:37.261Z,84.71
2024-01-25T17:05:04.090Z,83.84
2024-01-25T17:07:30.896Z,83.81
2024-01-25T17:09:57.609Z,82.95
2024-01-25T17:12:24.338Z,83.37
2024-01-25T17:14:51.088Z,83.35
2024-01-25T17:17:18.229Z,84.55
2024-01-25T17:19:45.070Z,83.46
2024-01-25T17:22:11.806Z,83.70
2024-01-25T17:24:44.164Z,83.41
2024-01-25T17:27:11.328Z,83.27
2024-01-25T17:29:37.909Z,83.17
2024-01-25T17:32:04.726Z,83.74
2024-01-25T17:34:31.546Z,83.12
2024-01-25T17:36:58.348Z,83.12
2024-01-25T17:39:25.121Z,82.88
2024-01-25T17:41:52.990Z,83.14
2024-01-25T17:44:19.686Z,83.91
2024-01-25T17:46:46.426Z,83.67
2024-01-25T17:49:13.670Z,82.38
2024-01-25T17:51:40.449Z,82.90
2024-01-25T17:54:07.134Z,82.85
2024-01-25T17:56:37.704Z,80.52
2024-01-25T17:59:06.357Z,81.40
2024-01-25T18:01:33.022Z,81.46
2024-01-25T18:04:00.081Z,81.63
2024-01-25T18:06:26.937Z,81.92
2024-01-25T18:08:53.786Z,82.02
2024-01-25T18:11:20.423Z,83.29
2024-01-25T18:13:48.798Z,82.87
2024-01-25T18:16:15.526Z,81.75
2024-01-25T18:18:42.313Z,82.06
2024-01-25T18:21:09.531Z,82.61
2024-01-25T18:23:37.377Z,82.59
2024-01-25T18:26:04.785Z,82.73
2024-01-25T18:28:31.426Z,82.92
2024-01-25T18:30:58.763Z,81.92
2024-01-25T18:33:25.708Z,82.87
2024-01-25T18:35:52.722Z,81.98
2024-01-25T18:38:19.426Z,82.39
2024-01-25T18:40:46.121Z,82.38
2024-01-25T18:43:13.383Z,83.18
2024-01-25T18:45:40.068Z,83.27
2024-01-25T18:48:07.348Z,82.99
2024-01-25T18:50:33.989Z,83.25
2024-01-25T18:53:00.728Z,81.41
2024-01-25T18:55:27.660Z,82.33
2024-01-25T18:57:54.545Z,82.52
2024-01-25T19:00:21.594Z,82.39
2024-01-25T19:02:48.801Z,82.17
2024-01-25T19:05:15.943Z,82.56
2024-01-25T19:07:42.745Z,81.99
2024-01-25T19:10:09.480Z,81.44
2024-01-25T19:12:41.858Z,81.12
2024-01-25T19:15:12.222Z,81.13
2024-01-25T19:17:39.038Z,82.95
2024-01-25T19:20:08.387Z,81.68
2024-01-25T19:22:35.023Z,82.44
2024-01-25T19:25:02.221Z,82.42
2024-01-25T19:27:30.640Z,83.59
2024-01-25T19:29:57.615Z,83.09
2024-01-25T19:32:24.646Z,82.68
2024-01-25T19:34:51.415Z,82.46
2024-01-25T19:37:18.798Z,82.38
2024-01-25T19:39:48.843Z,82.67
2024-01-25T19:42:15.579Z,82.06
2024-01-25T19:44:42.281Z,83.53
2024-01-25T19:47:08.903Z,82.32
2024-01-25T19:49:35.643Z,83.23
2024-01-25T19:52:03.731Z,83.10
2024-01-25T19:54:31.316Z,81.60
2024-01-25T19:56:58.545Z,81.54
2024-01-25T19:59:25.277Z,81.67
2024-01-25T20:01:52.128Z,82.62
2024-01-25T20:04:18.919Z,81.48
2024-01-25T20:06:45.780Z,82.69
2024-01-25T20:09:12.424Z,82.18
2024-01-25T20:11:39.049Z,81.70
2024-01-25T20:14:05.755Z,81.68
2024-01-25T20:16:32.416Z,82.55
2024-01-25T20:18:59.532Z,81.20
2024-01-25T20:21:26.384Z,81.80
2024-01-25T20:23:53.040Z,82.89
2024-01-25T20:26:20.909Z,82.24
2024-01-25T20:28:47.779Z,81.31
2024-01-25T20:31:16.351Z,81.96
2024-01-25T20:33:43.205Z,81.40
2024-01-25T20:36:10.000Z,81.85
2024-01-25T20:38:36.631Z,81.36
2024-01-25T20:41:03.328Z,81.49
2024-01-25T20:43:30.092Z,82.68
2024-01-25T20:45:57.303Z,82.31
2024-01-25T20:48:24.156Z,81.52
2024-01-25T20:50:51.890Z,82.04
2024-01-25T20:53:18.587Z,80.85
2024-01-25T20:55:45.197Z,79.97
2024-01-25T20:58:11.813Z,81.97
2024-01-25T21:00:40.377Z,82.00
2024-01-25T21:03:07.838Z,81.11
2024-01-25T21:05:34.773Z,81.67
2024-01-25T21:08:02.021Z,81.58
2024-01-25T21:10:28.808Z,82.45
2024-01-25T21:12:55.654Z,82.19
2024-01-25T21:15:22.582Z,82.22
2024-01-25T21:17:49.402Z,81.37
2024-01-25T21:20:16.546Z,82.11
2024-01-25T21:22:43.320Z,81.30
2024-01-25T21:25:11.962Z,81.04
2024-01-25T21:27:39.213Z,81.12
2024-01-25T21:30:06.444Z,81.41
2024-01-25T21:32:33.098Z,81.44
2024-01-25T21:35:00.019Z,82.51
2024-01-25T21:37:29.345Z,81.39
2024-01-25T21:39:56.225Z,81.06
2024-01-25T21:42:22.929Z,80.60
2024-01-25T21:44:49.674Z,80.33
2024-01-25T21:47:16.755Z,81.60
2024-01-25T21:49:43.857Z,81.32
2024-01-25T21:52:10.666Z,81.08
2024-01-25T21:54:37.579Z,81.53
2024-01-25T21:57:04.393Z,81.86
2024-01-25T21:59:31.173Z,82.17
2024-01-25T22:01:58.985Z,81.27
2024-01-25T22:04:25.684Z,80.88
2024-01-25T22:06:52.500Z,80.39
2024-01-25T22:09:19.561Z,81.19
2024-01-25T22:11:46.344Z,81.10
2024-01-25T22:14:12.974Z,80.58
2024-01-25T22:16:39.674Z,82.49
2024-01-25T22:19:06.482Z,81.55
2024-01-25T22:21:36.300Z,81.02
2024-01-25T22:24:04.115Z,81.39
2024-01-25T22:26:30.808Z,81.21
2024-01-25T22:28:57.487Z,81.35
2024-01-25T22:31:24.180Z,81.62
2024-01-25T22:33:51.031Z,80.98
2024-01-25T22:36:17.997Z,80.82
2024-01-25T22:38:44.642Z,81.30
2024-01-25T22:41:12.397Z,82.18
2024-01-25T22:43:39.037Z,81.52
2024-01-25T22:46:05.772Z,81.67
2024-01-25T22:48:32.483Z,81.71
2024-01-25T22:51:04.361Z,81.61
2024-01-25T22:53:31.498Z,82.30
2024-01-25T22:55:59.445Z,82.26
2024-01-25T22:58:26.231Z,83.32
2024-01-25T23:00:53.400Z,82.81
2024-01-25T23:03:21.069Z,82.32
2024-01-25T23:05:49.151Z,82.55
2024-01-25T23:08:16.002Z,81.76
2024-01-25T23:10:43.873Z,81.70
2024-01-25T23:13:10.574Z,82.23
2024-01-25T23:15:37.436Z,82.14
2024-01-25T23:18:04.612Z,82.27
2024-01-25T23:20:31.462Z,81.69
2024-01-25T23:22:58.163Z,82.00
2024-01-25T23:25:24.802Z,82.10
2024-01-25T23:27:51.505Z,82.24
2024-01-25T23:30:18.205Z,81.83
2024-01-25T23:32:45.522Z,81.54
2024-01-25T23:35:12.220Z,82.50
2024-01-25T23:37:38.887Z,82.34
2024-01-25T23:40:08.070Z,81.67
2024-01-25T23:42:35.673Z,80.95
2024-01-25T23:45:02.542Z,81.57
2024-01-25T23:47:29.970Z,81.99
2024-01-25T23:49:56.982Z,81.90
2024-01-25T23:52:23.870Z,82.49
2024-01-25T23:54:50.493Z,82.45
2024-01-25T23:57:18.738Z,83.39
2024-01-25T23:59:45.527Z,83.41
